Time;durP1;ratioP1;P1;durP2;ratioP2;P2;SDS_P1;SDS_P2;PMS_P1;PMS_P2;Temp;Humidity;BMP_temperature;BMP_pressure;BME280_temperature;BME280_humidity;BME280_pressure;Samples;Min_cycle;Max_cycle;Signal;HPM_P1;HPM_P2
2022/06/19 00:01:01;;;;;;;4.43;4.07;;;17.60;99.40;;;17.99;68.29;95414.06;5061886;28;20558;-52
2022/06/19 00:03:32;;;;;;;5.60;4.40;;;17.60;99.50;;;17.98;68.24;95420.38;5066280;28;20486;-53
2022/06/19 00:06:00;;;;;;;4.40;4.20;;;17.60;99.50;;;17.97;68.38;95418.75;5067040;28;21049;-53
2022/06/19 00:08:27;;;;;;;7.73;3.50;;;17.60;99.50;;;17.95;68.43;95417.25;5064890;28;20903;-55
2022/06/19 00:10:55;;;;;;;5.40;4.13;;;17.60;99.60;;;17.93;68.52;95420.09;5066832;28;20475;-55
2022/06/19 00:13:23;;;;;;;8.63;4.57;;;17.60;99.60;;;17.90;68.37;95417.78;5068719;28;20455;-56
2022/06/19 00:15:51;;;;;;;7.80;3.93;;;17.60;99.70;;;17.87;68.12;95420.75;5070007;28;20484;-55
2022/06/19 00:18:18;;;;;;;4.23;3.83;;;17.60;99.70;;;17.86;68.13;95419.06;5064159;28;20464;-56
2022/06/19 00:20:45;;;;;;;8.30;4.70;;;17.50;99.80;;;17.82;68.36;95410.59;5072224;28;21048;-53
2022/06/19 00:23:12;;;;;;;4.50;4.13;;;17.50;99.80;;;17.82;68.26;95413.28;5071740;28;20459;-55
2022/06/19 00:25:40;;;;;;;4.37;3.90;;;17.50;99.80;;;17.79;68.82;95416.28;5063307;28;20503;-52
2022/06/19 00:28:08;;;;;;;4.53;4.23;;;17.50;99.90;;;17.78;68.55;95427.91;5071472;28;20864;-55
2022/06/19 00:30:37;;;;;;;8.97;4.50;;;17.40;99.90;;;17.75;68.75;95425.59;5076163;28;20470;-53
2022/06/19 00:33:04;;;;;;;4.60;4.20;;;17.40;99.90;;;17.74;68.80;95421.28;5074492;28;20456;-55
2022/06/19 00:35:31;;;;;;;4.63;4.33;;;17.40;99.90;;;17.71;69.00;95425.09;5068705;28;20553;-56
2022/06/19 00:37:59;;;;;;;7.60;4.23;;;17.40;99.90;;;17.70;69.26;95422.63;5073692;28;20456;-56
2022/06/19 00:40:27;;;;;;;4.93;4.00;;;17.40;99.90;;;17.69;69.15;95424.47;5069464;28;20487;-53
2022/06/19 00:42:55;;;;;;;4.93;4.30;;;17.30;99.90;;;17.70;69.57;95433.25;5063826;28;20474;-54
2022/06/19 00:45:38;;;;;;;8.23;5.10;;;17.30;99.90;;;17.70;69.85;95427.94;5070768;28;20508;-53
2022/06/19 00:48:11;;;;;;;4.83;4.43;;;17.30;99.90;;;17.68;69.28;95421.97;5061496;28;20452;-54
2022/06/19 00:50:38;;;;;;;9.00;4.70;;;17.40;99.90;;;17.67;69.81;95428.28;5062374;28;20479;-56
2022/06/19 00:53:09;;;;;;;7.97;4.70;;;17.30;99.90;;;17.65;69.49;95427.63;5067542;28;20450;-54
2022/06/19 00:55:39;;;;;;;5.10;4.60;;;17.30;99.90;;;17.65;69.59;95427.63;5066058;28;20479;-54
2022/06/19 00:58:10;;;;;;;6.47;5.87;;;17.30;99.90;;;17.62;69.08;95426.13;5065131;28;20444;-55
2022/06/19 01:00:39;;;;;;;4.13;3.40;;;17.30;99.90;;;17.61;69.43;95426.28;5067239;28;20483;-55
2022/06/19 01:03:09;;;;;;;5.53;4.30;;;17.20;99.90;;;17.59;68.93;95420.31;5064498;28;20481;-55
2022/06/19 01:05:36;;;;;;;9.40;3.90;;;17.20;99.90;;;17.56;68.87;95424.97;5067554;28;20501;-53
2022/06/19 01:08:04;;;;;;;5.57;4.07;;;17.20;99.90;;;17.52;68.47;95414.84;5071327;28;20459;-53
2022/06/19 01:10:32;;;;;;;11.07;4.23;;;17.20;99.90;;;17.49;68.60;95412.50;5066325;28;20912;-51
2022/06/19 01:13:00;;;;;;;10.10;3.70;;;17.20;99.90;;;17.47;68.88;95411.84;5075922;28;20856;-52
2022/06/19 01:15:27;;;;;;;12.37;4.17;;;17.10;99.90;;;17.44;68.93;95412.19;5068715;28;20474;-55
2022/06/19 01:17:59;;;;;;;7.93;3.87;;;17.10;99.90;;;17.41;68.74;95418.66;5067512;28;20482;-55
2022/06/19 01:20:27;;;;;;;3.90;3.60;;;17.10;99.90;;;17.37;68.78;95415.53;5072848;28;20466;-52
2022/06/19 01:23:01;;;;;;;9.37;3.93;;;17.00;99.90;;;17.34;68.84;95420.38;5072720;28;20455;-52
2022/06/19 01:25:32;;;;;;;7.87;4.80;;;17.00;99.90;;;17.31;68.70;95416.19;5072580;28;20495;-53
2022/06/19 01:30:54;;;;;;;10.70;3.90;;;17.00;99.90;;;17.27;68.93;95416.72;5074559;28;20954;-55
2022/06/19 01:33:24;;;;;;;4.40;4.10;;;16.90;99.90;;;17.25;68.89;95414.22;5072596;28;20461;-54
2022/06/19 01:35:51;;;;;;;4.83;4.53;;;16.90;99.90;;;17.22;68.86;95405.75;5067380;28;20474;-55
2022/06/19 01:38:21;;;;;;;4.10;3.77;;;16.90;99.90;;;17.18;68.86;95406.09;5062376;28;20516;-56
2022/06/19 01:40:52;;;;;;;4.03;3.73;;;16.90;99.90;;;17.13;69.07;95405.75;5061302;28;20482;-54
2022/06/19 01:43:20;;;;;;;4.53;4.23;;;16.80;99.90;;;17.07;69.02;95403.78;5066814;28;20487;-55
2022/06/19 01:45:52;;;;;;;4.93;4.47;;;16.80;99.90;;;17.03;68.85;95407.75;5067771;28;20878;-54
2022/06/19 01:48:20;;;;;;;5.57;4.00;;;16.70;99.90;;;17.00;69.11;95408.09;5070669;28;20443;-55
2022/06/19 01:50:47;;;;;;;4.70;4.13;;;16.70;99.90;;;16.99;69.37;95414.38;5068101;28;20873;-56
2022/06/19 01:53:18;;;;;;;19.57;4.50;;;16.70;99.90;;;17.00;69.91;95413.41;5069235;28;20470;-55
2022/06/19 01:55:45;;;;;;;4.13;3.93;;;16.70;99.90;;;16.99;69.69;95420.56;5068774;28;20481;-55
2022/06/19 01:58:14;;;;;;;9.10;4.20;;;16.70;99.90;;;16.98;69.39;95410.91;5072721;28;20458;-55
2022/06/19 02:00:43;;;;;;;8.33;4.30;;;16.70;99.90;;;16.97;69.55;95403.09;5075202;28;20477;-54
2022/06/19 02:03:21;;;;;;;5.63;4.87;;;16.70;99.90;;;16.97;70.20;95422.53;5071292;28;20523;-55
2022/06/19 02:05:48;;;;;;;5.00;4.70;;;16.60;99.90;;;16.98;70.05;95423.38;5072784;28;20494;-54
2022/06/19 02:08:15;;;;;;;4.80;4.40;;;16.60;99.90;;;16.96;70.10;95420.88;5078388;28;20847;-54
2022/06/19 02:10:44;;;;;;;5.30;4.80;;;16.70;99.90;;;16.97;69.98;95419.88;5076316;28;20489;-55
2022/06/19 02:13:13;;;;;;;5.60;4.60;;;16.60;99.90;;;16.97;69.71;95432.34;5072161;28;20951;-55
2022/06/19 02:15:40;;;;;;;7.70;4.30;;;16.60;99.90;;;16.97;70.21;95432.34;5078327;28;20477;-54
2022/06/19 02:18:08;;;;;;;11.40;4.53;;;16.60;99.90;;;16.95;70.25;95427.19;5075134;28;20456;-55
2022/06/19 02:20:35;;;;;;;12.10;4.60;;;16.60;99.90;;;16.93;70.16;95428.34;5071428;28;20481;-56
2022/06/19 02:23:05;;;;;;;9.63;4.70;;;16.60;99.90;;;16.89;69.60;95435.81;5075647;28;20890;-53
2022/06/19 02:25:34;;;;;;;5.57;5.07;;;16.60;99.90;;;16.81;69.77;95431.28;5076866;28;20494;-54
2022/06/19 02:28:02;;;;;;;10.70;4.57;;;16.60;99.90;;;16.78;69.64;95423.66;5065597;28;20451;-54
2022/06/19 02:30:31;;;;;;;5.27;4.87;;;16.50;99.90;;;16.72;69.78;95426.97;5062777;28;20860;-52
2022/06/19 02:32:59;;;;;;;6.93;4.00;;;16.40;99.90;;;16.71;70.00;95422.63;5068006;28;20455;-52
2022/06/19 02:35:26;;;;;;;7.87;4.87;;;16.40;99.90;;;16.71;70.14;95427.94;5067018;28;20480;-53
2022/06/19 02:37:55;;;;;;;4.27;3.93;;;16.40;99.90;;;16.72;70.36;95431.47;5067531;28;20475;-55
2022/06/19 02:40:33;;;;;;;6.97;4.47;;;16.40;99.90;;;16.72;69.98;95432.28;5066009;28;20482;-55
2022/06/19 02:43:00;;;;;;;5.50;4.10;;;16.40;99.90;;;16.71;70.07;95441.22;5069541;28;20456;-53
2022/06/19 02:45:29;;;;;;;11.97;5.60;;;16.40;99.90;;;16.70;70.39;95442.25;5069137;28;20497;-54
2022/06/19 02:47:59;;;;;;;4.30;4.07;;;16.40;99.90;;;16.71;70.37;95440.41;5071145;28;20473;-54
2022/06/19 02:50:30;;;;;;;6.13;4.90;;;16.40;99.90;;;16.71;70.38;95435.91;5068478;28;20543;-55
2022/06/19 02:52:57;;;;;;;6.60;4.17;;;16.40;99.90;;;16.72;70.64;95434.94;5067862;28;20455;-54
2022/06/19 02:55:25;;;;;;;4.63;4.27;;;16.40;99.90;;;16.73;70.42;95447.25;5073724;28;20500;-54
2022/06/19 02:57:52;;;;;;;5.03;4.50;;;16.40;99.90;;;16.71;70.61;95445.72;5074215;28;20463;-54
2022/06/19 03:00:21;;;;;;;6.40;4.60;;;16.40;99.90;;;16.72;70.49;95442.09;5063095;28;20477;-54
2022/06/19 03:02:49;;;;;;;6.20;4.63;;;16.40;99.90;;;16.71;70.53;95440.41;5068849;28;20459;-53
2022/06/19 03:05:20;;;;;;;8.00;4.77;;;16.40;99.90;;;16.69;70.37;95443.22;5077488;28;20493;-55
2022/06/19 03:07:47;;;;;;;5.23;4.53;;;16.40;99.90;;;16.66;70.03;95446.22;5077704;28;20465;-55
2022/06/19 03:10:15;;;;;;;11.03;5.40;;;16.40;99.90;;;16.63;69.99;95449.19;5073921;28;20486;-55
2022/06/19 03:12:43;;;;;;;12.40;4.90;;;16.30;99.90;;;16.61;70.25;95445.88;5072014;28;20449;-55
2022/06/19 03:15:11;;;;;;;20.43;5.23;;;16.30;99.90;;;16.58;69.90;95439.06;5071710;28;20476;-55
2022/06/19 03:17:39;;;;;;;12.23;5.00;;;16.30;99.90;;;16.56;70.14;95442.88;5067511;28;20467;-54
2022/06/19 03:20:07;;;;;;;5.77;4.77;;;16.30;99.90;;;16.55;70.24;95447.34;5068897;28;20463;-54
2022/06/19 03:22:36;;;;;;;16.57;4.97;;;16.20;99.90;;;16.56;70.49;95451.69;5067684;28;20454;-54
2022/06/19 03:25:04;;;;;;;4.10;3.90;;;16.20;99.90;;;16.58;70.49;95459.50;5070890;28;20571;-55
2022/06/19 03:27:31;;;;;;;13.70;4.90;;;16.20;99.90;;;16.59;70.69;95453.16;5072427;28;20465;-54
2022/06/19 03:29:58;;;;;;;27.03;5.40;;;16.30;99.90;;;16.59;70.38;95454.00;5071779;28;20470;-55
2022/06/19 03:32:26;;;;;;;7.40;5.93;;;16.30;99.90;;;16.57;70.02;95452.50;5074457;28;20447;-54
2022/06/19 03:34:53;;;;;;;9.80;4.90;;;16.30;99.90;;;16.53;69.92;95454.66;5075812;28;20471;-54
2022/06/19 03:37:21;;;;;;;5.30;4.83;;;16.20;99.90;;;16.48;69.87;95446.34;5072595;28;20458;-55
2022/06/19 03:39:51;;;;;;;8.23;4.83;;;16.20;99.90;;;16.45;70.06;95449.31;5075132;28;20474;-58
2022/06/19 03:42:18;;;;;;;5.03;4.53;;;16.20;99.90;;;16.44;69.88;95447.66;5074314;28;20477;-54
2022/06/19 03:44:45;;;;;;;4.30;4.00;;;16.10;99.90;;;16.43;69.98;95446.81;5075049;28;20532;-53
2022/06/19 03:47:14;;;;;;;5.00;4.60;;;16.20;99.90;;;16.42;70.42;95450.47;5075721;28;21018;-54
2022/06/19 03:49:41;;;;;;;5.10;4.60;;;16.10;99.90;;;16.42;70.53;95450.47;5074642;28;20603;-55
2022/06/19 03:52:09;;;;;;;6.07;4.40;;;16.10;99.90;;;16.44;70.20;95451.16;5080086;28;20457;-54
2022/06/19 03:54:36;;;;;;;5.90;5.30;;;16.10;99.90;;;16.44;69.99;95448.50;5068476;28;20541;-54
2022/06/19 03:57:06;;;;;;;8.07;4.47;;;16.10;99.90;;;16.48;70.54;95449.84;5073416;28;20689;-54
2022/06/19 03:59:33;;;;;;;6.13;4.47;;;16.20;99.90;;;16.52;70.59;95453.00;5068715;28;20460;-55
2022/06/19 04:02:01;;;;;;;6.50;5.20;;;16.20;99.90;;;16.59;70.68;95454.00;5078068;28;20459;-53
2022/06/19 04:04:28;;;;;;;6.57;5.20;;;16.20;99.90;;;16.65;70.80;95453.38;5071786;28;20537;-52
2022/06/19 04:06:56;;;;;;;4.87;4.57;;;16.30;99.90;;;16.71;70.85;95454.50;5061395;28;20482;-54
2022/06/19 04:09:23;;;;;;;6.77;5.17;;;16.40;99.90;;;16.76;70.52;95457.53;5061001;28;21018;-55
2022/06/19 04:11:50;;;;;;;8.40;5.07;;;16.40;99.90;;;16.78;70.17;95460.84;5067108;28;20451;-55
2022/06/19 04:14:19;;;;;;;5.50;5.00;;;16.50;99.90;;;16.82;70.16;95459.53;5063871;28;20824;-55
2022/06/19 04:16:46;;;;;;;12.70;5.40;;;16.50;99.90;;;16.87;70.05;95455.56;5068336;28;20451;-53
2022/06/19 04:19:14;;;;;;;11.60;6.10;;;16.50;99.90;;;16.91;70.43;95459.56;5065710;28;20453;-54
2022/06/19 04:21:43;;;;;;;6.60;5.77;;;16.60;99.90;;;16.91;70.08;95459.56;5071082;28;20478;-53
2022/06/19 04:24:11;;;;;;;10.20;5.40;;;16.60;99.90;;;16.96;69.78;95465.22;5069160;28;20546;-54
2022/06/19 04:26:39;;;;;;;10.50;7.20;;;16.60;99.90;;;16.96;69.78;95467.88;5071097;28;20490;-56
2022/06/19 04:29:07;;;;;;;8.87;6.00;;;16.70;99.90;;;16.96;69.43;95470.53;5070969;28;20455;-55
2022/06/19 04:31:36;;;;;;;5.77;5.37;;;16.60;99.90;;;16.95;69.47;95463.56;5070657;28;20513;-56
2022/06/19 04:34:03;;;;;;;5.67;5.20;;;16.70;99.90;;;16.97;69.38;95464.22;5069366;28;20455;-53
2022/06/19 04:36:31;;;;;;;13.33;5.20;;;16.70;99.90;;;16.99;69.48;95464.88;5068359;28;20474;-55
2022/06/19 04:38:58;;;;;;;4.60;4.40;;;16.70;99.90;;;17.04;69.18;95467.91;5074787;28;20453;-54
2022/06/19 04:41:27;;;;;;;8.53;5.10;;;16.70;99.90;;;17.06;69.11;95463.25;5075114;28;20577;-54
2022/06/19 04:43:54;;;;;;;10.40;5.33;;;16.70;99.90;;;17.06;68.96;95465.06;5075588;28;20470;-53
2022/06/19 04:46:22;;;;;;;9.70;4.93;;;16.80;99.90;;;17.04;68.88;95459.94;5070557;28;20495;-55
2022/06/19 04:48:50;;;;;;;8.10;6.13;;;16.80;99.90;;;17.02;69.08;95459.25;5079744;28;20450;-54
2022/06/19 04:51:18;;;;;;;8.13;5.27;;;16.70;99.90;;;17.01;68.85;95460.25;5076468;28;20487;-53
2022/06/19 04:53:45;;;;;;;11.83;4.87;;;16.70;99.90;;;16.99;68.92;95459.56;5072599;28;20490;-54
2022/06/19 04:56:14;;;;;;;5.90;5.40;;;16.70;99.90;;;16.98;68.85;95468.56;5064577;28;20482;-56
2022/06/19 04:58:42;;;;;;;10.13;5.40;;;16.70;99.90;;;16.97;69.18;95472.19;5065030;28;20976;-52
2022/06/19 05:01:10;;;;;;;7.77;5.00;;;16.70;99.90;;;16.99;69.38;95480.81;5066939;28;20847;-55
2022/06/19 05:03:38;;;;;;;5.20;4.80;;;16.70;99.90;;;17.04;69.31;95475.88;5066501;28;20853;-55
2022/06/19 05:06:06;;;;;;;5.47;4.97;;;16.70;99.90;;;17.11;69.75;95479.50;5069927;28;20881;-53
2022/06/19 05:08:34;;;;;;;6.73;5.37;;;16.80;99.90;;;17.18;69.59;95480.53;5067222;28;20867;-54
2022/06/19 05:11:01;;;;;;;5.57;5.07;;;16.80;99.90;;;17.25;69.43;95480.69;5065906;28;20481;-54
2022/06/19 05:13:28;;;;;;;4.73;4.43;;;16.90;99.90;;;17.35;69.25;95480.50;5070419;28;20931;-54
2022/06/19 05:16:05;;;;;;;5.67;5.13;;;17.00;99.90;;;17.43;69.25;95487.66;5069023;28;20474;-54
2022/06/19 05:18:32;;;;;;;9.73;5.23;;;17.10;99.90;;;17.56;69.53;95486.16;5071948;28;20454;-54
2022/06/19 05:21:01;;;;;;;8.93;5.30;;;17.10;99.90;;;17.72;69.01;95487.13;5067767;28;20554;-55
2022/06/19 05:23:29;;;;;;;5.83;5.43;;;17.30;99.90;;;17.86;68.38;95482.94;5072032;28;21051;-53
2022/06/19 05:26:01;;;;;;;9.20;4.80;;;17.40;99.90;;;18.02;68.65;95482.13;5075550;28;20466;-53
2022/06/19 05:28:30;;;;;;;5.50;5.00;;;17.60;99.90;;;18.18;68.25;95482.03;5073413;28;20974;-53
2022/06/19 05:30:59;;;;;;;11.63;5.53;;;17.70;99.90;;;18.37;67.24;95475.50;5074768;28;20501;-55
2022/06/19 05:33:26;;;;;;;4.60;4.30;;;17.90;99.90;;;18.51;66.62;95481.91;5078853;28;20450;-53
2022/06/19 05:35:54;;;;;;;11.37;5.17;;;18.10;99.80;;;18.67;66.78;95485.50;5080339;28;20528;-57
2022/06/19 05:38:21;;;;;;;6.83;5.50;;;18.20;99.70;;;18.84;66.61;95486.22;5068859;28;20455;-53
2022/06/19 05:40:52;;;;;;;5.30;4.90;;;18.40;99.80;;;19.02;66.21;95484.16;5064469;28;20476;-55
2022/06/19 05:43:19;;;;;;;7.97;5.50;;;18.50;99.60;;;19.19;66.43;95476.03;5068185;28;20802;-52
2022/06/19 05:45:53;;;;;;;9.93;4.30;;;18.70;99.50;;;19.38;65.78;95475.56;5065454;28;20463;-54
2022/06/19 05:48:21;;;;;;;5.23;4.73;;;18.90;99.30;;;19.61;65.22;95488.03;5066789;28;20454;-53
2022/06/19 05:50:58;;;;;;;4.70;4.40;;;19.10;98.90;;;19.85;65.11;95485.16;5065324;28;20486;-53
2022/06/19 05:53:26;;;;;;;10.43;4.93;;;19.30;98.60;;;20.04;64.40;95489.13;5065011;28;20458;-54
2022/06/19 05:55:55;;;;;;;8.50;5.50;;;19.50;98.30;;;20.20;63.77;95489.94;5065598;28;20491;-53
2022/06/19 05:58:23;;;;;;;6.87;4.60;;;19.70;98.10;;;20.37;63.42;95483.44;5066164;28;20541;-56
2022/06/19 06:00:50;;;;;;;7.03;4.77;;;19.80;97.80;;;20.53;63.29;95481.56;5071213;28;20473;-55
2022/06/19 06:03:19;;;;;;;4.70;4.30;;;20.00;97.60;;;20.70;63.15;95490.22;5066792;28;20935;-55
2022/06/19 06:05:46;;;;;;;11.20;4.87;;;20.20;97.50;;;20.84;62.87;95481.34;5066966;28;20482;-52
2022/06/19 06:08:14;;;;;;;9.90;4.43;;;20.30;97.30;;;21.04;62.66;95481.56;5069904;28;20487;-53
2022/06/19 06:10:41;;;;;;;5.23;4.77;;;20.50;97.20;;;21.23;62.14;95487.28;5075720;28;20470;-54
2022/06/19 06:13:10;;;;;;;6.30;4.47;;;20.70;96.90;;;21.38;61.82;95485.38;5062152;28;20463;-54
2022/06/19 06:15:37;;;;;;;5.47;5.07;;;20.80;96.60;;;21.51;61.86;95482.03;5067486;28;20469;-56
2022/06/19 06:18:05;;;;;;;7.03;5.40;;;20.90;96.40;;;21.63;61.01;95483.16;5068573;28;20466;-54
2022/06/19 06:20:32;;;;;;;6.20;4.90;;;21.00;96.10;;;21.77;61.08;95484.09;5074022;28;20485;-56
2022/06/19 06:23:00;;;;;;;4.83;3.77;;;21.20;95.70;;;21.93;60.59;95487.50;5073031;28;20463;-54
2022/06/19 06:25:27;;;;;;;4.23;3.87;;;21.30;95.60;;;22.13;60.05;95490.31;5069277;28;20482;-54
2022/06/19 06:27:54;;;;;;;5.37;4.90;;;21.50;95.40;;;22.38;59.97;95491.53;5071760;28;20590;-55
2022/06/19 06:30:23;;;;;;;6.00;4.10;;;21.70;95.20;;;22.60;58.96;95488.72;5077394;28;20470;-54
2022/06/19 06:32:51;;;;;;;4.50;4.20;;;21.90;94.40;;;22.79;58.50;95486.31;5067523;28;20439;-55
2022/06/19 06:35:18;;;;;;;3.50;3.30;;;22.10;94.20;;;22.98;58.02;95487.44;5060460;28;20479;-53
2022/06/19 06:37:45;;;;;;;5.90;4.20;;;22.40;93.90;;;23.16;57.63;95482.34;5062255;28;20947;-54
2022/06/19 06:40:13;;;;;;;4.23;3.97;;;22.50;93.20;;;23.29;57.48;95483.41;5061294;28;20486;-52
2022/06/19 06:42:40;;;;;;;5.27;4.77;;;22.70;93.00;;;23.43;56.91;95477.00;5064386;28;20466;-54
2022/06/19 06:45:13;;;;;;;5.10;4.60;;;22.80;92.70;;;23.55;56.69;95479.91;5071119;28;20783;-55
2022/06/19 06:47:41;;;;;;;8.37;5.50;;;22.90;92.50;;;23.67;56.62;95482.78;5062509;28;20478;-54
2022/06/19 06:50:10;;;;;;;8.90;4.00;;;23.10;92.30;;;23.76;55.65;95476.19;5068928;28;21041;-56
2022/06/19 06:52:37;;;;;;;5.03;4.60;;;23.10;92.10;;;23.89;56.17;95476.22;5072113;28;20458;-54
2022/06/19 06:55:06;;;;;;;10.00;3.47;;;23.30;92.00;;;24.06;56.07;95478.44;5074191;28;20721;-56
2022/06/19 06:57:33;;;;;;;5.10;4.63;;;23.40;91.90;;;24.28;55.72;95476.34;5076038;28;20457;-52
2022/06/19 07:00:01;;;;;;;10.60;4.53;;;23.60;91.70;;;24.44;54.63;95472.38;5070121;28;20985;-56
2022/06/19 07:02:28;;;;;;;7.77;4.40;;;23.80;91.30;;;24.56;54.79;95465.28;5070115;28;20835;-53
2022/06/19 07:04:57;;;;;;;10.70;5.20;;;23.90;90.90;;;24.67;54.14;95461.97;5074121;28;20490;-57
2022/06/19 07:07:24;;;;;;;8.43;5.37;;;24.00;90.60;;;24.90;54.23;95459.81;5065796;28;20492;-53
2022/06/19 07:09:51;;;;;;;6.77;4.90;;;24.20;90.40;;;25.09;53.54;95449.97;5076747;28;20547;-56
2022/06/19 07:12:19;;;;;;;15.13;3.97;;;24.40;89.50;;;25.24;52.63;95454.00;5073058;28;20996;-54
2022/06/19 07:14:47;;;;;;;5.07;4.67;;;24.60;88.90;;;25.38;52.48;95451.25;5074508;28;20884;-53
2022/06/19 07:17:14;;;;;;;8.57;5.33;;;24.70;88.60;;;25.46;51.86;95444.78;5074598;28;20480;-57
2022/06/19 07:19:42;;;;;;;5.37;3.77;;;24.80;87.30;;;25.52;51.74;95455.50;5064914;28;20489;-54
2022/06/19 07:22:12;;;;;;;6.83;3.90;;;24.80;86.60;;;25.63;51.68;95450.44;5073034;28;20482;-55
2022/06/19 07:24:39;;;;;;;4.57;4.17;;;24.90;86.20;;;25.74;51.04;95447.84;5072028;28;20551;-57
2022/06/19 07:27:07;;;;;;;8.43;4.20;;;25.10;85.00;;;25.78;49.51;95434.78;5066831;28;20568;-55
2022/06/19 07:29:35;;;;;;;3.40;3.20;;;25.10;80.50;;;25.90;49.36;95432.16;5059383;28;20451;-57
2022/06/19 07:32:02;;;;;;;3.77;3.47;;;25.20;80.90;;;26.01;49.12;95434.16;5059549;28;20461;-56
2022/06/19 07:34:29;;;;;;;8.33;4.00;;;25.30;80.90;;;26.09;49.33;95439.25;5059836;28;20461;-57
2022/06/19 07:36:57;;;;;;;3.97;3.67;;;25.40;80.50;;;26.23;48.87;95433.72;5066504;28;20453;-54
2022/06/19 07:39:25;;;;;;;5.60;3.63;;;25.50;79.30;;;26.39;48.07;95430.41;5070776;28;21506;-57
2022/06/19 07:41:53;;;;;;;6.80;4.00;;;25.70;77.90;;;26.57;48.00;95434.16;5060424;28;20463;-57
2022/06/19 07:44:20;;;;;;;4.33;3.30;;;25.80;77.20;;;26.70;47.37;95435.91;5070698;28;20457;-58
2022/06/19 07:52:17;;;;;;;6.43;3.43;;;26.30;72.90;;;27.21;45.95;95433.75;5074609;28;20429;-56
2022/06/19 07:54:45;;;;;;;3.70;3.40;;;26.50;71.60;;;27.37;45.40;95435.81;5068047;28;20457;-55
2022/06/19 07:57:13;;;;;;;3.80;3.50;;;26.70;70.90;;;27.54;44.83;95435.97;5071520;28;20468;-53
2022/06/19 07:59:40;;;;;;;3.77;3.50;;;26.80;69.20;;;27.64;44.41;95441.63;5063655;28;20466;-57
2022/06/19 08:02:08;;;;;;;13.80;3.30;;;27.00;67.60;;;27.67;44.42;95434.91;5069054;28;20823;-54
2022/06/19 08:04:35;;;;;;;4.60;3.23;;;27.00;66.80;;;27.69;44.11;95433.63;5064152;28;20473;-58
2022/06/19 08:07:02;;;;;;;7.60;3.47;;;27.10;66.30;;;27.77;43.16;95432.47;5065941;28;20492;-54
2022/06/19 08:09:30;;;;;;;5.20;2.90;;;27.10;62.90;;;27.87;43.27;95443.53;5056713;28;20446;-57
2022/06/19 08:12:00;;;;;;;7.10;3.20;;;27.20;64.60;;;28.03;42.69;95433.09;5075088;28;20454;-57
2022/06/19 08:14:27;;;;;;;6.70;3.63;;;27.30;63.10;;;28.17;42.91;95434.50;5077087;28;20485;-53
2022/06/19 08:16:54;;;;;;;12.63;3.30;;;27.50;63.20;;;28.32;42.97;95425.06;5075115;28;20467;-55
2022/06/19 08:19:22;;;;;;;4.83;3.40;;;27.60;63.30;;;28.46;42.37;95431.03;5082658;28;20445;-57
2022/06/19 08:21:49;;;;;;;3.73;3.40;;;27.80;62.30;;;28.56;42.12;95426.66;5080120;28;20537;-55
2022/06/19 08:24:17;;;;;;;11.70;2.60;;;27.90;61.10;;;28.65;41.73;95421.72;5078183;28;20445;-57
2022/06/19 08:26:44;;;;;;;5.53;2.10;;;28.00;61.00;;;28.69;41.53;95425.59;5084110;28;20474;-53
2022/06/19 08:29:13;;;;;;;3.90;2.57;;;28.10;59.70;;;28.70;40.27;95418.28;5082519;28;21025;-53
2022/06/19 08:31:41;;;;;;;2.40;2.20;;;28.10;58.40;;;28.62;41.06;95414.09;5069845;28;20869;-57
2022/06/19 08:34:08;;;;;;;3.07;1.93;;;28.00;57.70;;;28.50;39.90;95415.97;5080545;28;20480;-52
2022/06/19 08:36:35;;;;;;;2.20;2.00;;;27.90;57.30;;;28.37;40.67;95412.47;5082302;28;20457;-54
2022/06/19 08:39:04;;;;;;;2.43;2.30;;;27.80;58.00;;;28.25;40.33;95414.38;5072747;28;20461;-53
2022/06/19 08:41:48;;;;;;;5.70;2.30;;;27.70;57.80;;;28.07;40.80;95413.47;5081625;28;20465;-56
2022/06/19 08:44:42;;;;;;;2.93;1.70;;;27.60;58.00;;;27.89;40.30;95410.84;5080618;28;20458;-57
2022/06/19 08:47:23;;;;;;;5.23;1.60;;;27.40;57.20;;;27.71;40.57;95407.19;5078873;28;20526;-54
2022/06/19 08:49:57;;;;;;;1.60;1.40;;;27.30;57.00;;;27.61;40.81;95401.56;5075669;28;20549;-55
2022/06/19 08:52:33;;;;;;;1.70;1.60;;;27.10;57.90;;;27.59;40.82;95405.53;5073063;28;20438;-55
2022/06/19 08:55:12;;;;;;;2.70;1.80;;;27.10;58.40;;;27.51;40.21;95404.84;5067812;28;20471;-54
2022/06/19 08:57:44;;;;;;;3.93;1.37;;;27.00;56.80;;;27.36;40.69;95407.16;5063531;28;20442;-55
2022/06/19 09:00:17;;;;;;;5.07;1.30;;;26.90;56.60;;;27.23;39.26;95407.34;5064979;28;20475;-54
2022/06/19 09:02:59;;;;;;;1.57;1.47;;;26.80;55.00;;;27.00;38.69;95401.66;5067072;28;20453;-56
2022/06/19 09:05:40;;;;;;;2.80;1.47;;;26.60;54.20;;;26.83;38.72;95406.88;5068951;28;20493;-53
2022/06/19 09:08:57;;;;;;;3.57;1.50;;;26.40;54.30;;;26.68;38.98;95401.06;5076575;28;20477;-55
2022/06/19 09:11:44;;;;;;;1.53;1.43;;;26.30;54.50;;;26.57;39.34;95399.06;5046044;28;21066;-55
2022/06/19 09:14:27;;;;;;;7.30;1.77;;;26.10;53.90;;;26.45;39.04;95386.34;5083994;28;20453;-56
2022/06/19 09:17:01;;;;;;;3.47;1.20;;;26.00;54.20;;;26.41;38.82;95384.34;5077556;28;20459;-54
2022/06/19 09:19:39;;;;;;;1.40;1.30;;;26.00;53.80;;;26.37;39.07;95383.97;5082255;28;20563;-54
2022/06/19 09:22:18;;;;;;;4.17;1.37;;;25.90;54.30;;;26.36;38.56;95392.28;5078989;28;20950;-54
2022/06/19 09:24:56;;;;;;;1.13;1.03;;;25.90;53.80;;;26.35;38.20;95377.16;5081246;28;20472;-56
2022/06/19 09:27:27;;;;;;;2.83;1.37;;;25.90;53.80;;;26.35;38.09;95380.66;5084501;28;21103;-58
2022/06/19 09:29:57;;;;;;;3.60;1.77;;;25.90;52.90;;;26.27;38.58;95386.38;5080113;28;20462;-53
2022/06/19 09:32:29;;;;;;;1.30;1.20;;;25.80;53.30;;;26.16;37.99;95379.84;5077647;28;20816;-56
2022/06/19 09:34:59;;;;;;;4.77;1.63;;;25.70;52.70;;;26.14;38.46;95379.28;5083046;28;20527;-56
2022/06/19 09:37:30;;;;;;;1.33;1.23;;;25.70;53.20;;;26.14;38.86;95368.50;5081997;28;20798;-54
2022/06/19 09:40:00;;;;;;;1.60;1.50;;;25.70;53.60;;;26.22;38.64;95365.47;5085451;28;20465;-54
2022/06/19 09:42:32;;;;;;;1.60;1.50;;;25.70;53.60;;;26.24;38.17;95359.84;5075435;28;20449;-56
2022/06/19 09:45:03;;;;;;;1.67;1.57;;;25.70;52.70;;;26.20;38.08;95364.88;5082612;28;20472;-55
2022/06/19 09:47:34;;;;;;;1.70;1.60;;;25.70;53.00;;;26.25;38.92;95367.72;5083561;28;21013;-56
2022/06/19 09:50:06;;;;;;;2.17;1.23;;;25.80;53.70;;;26.38;38.96;95361.34;5073042;28;20876;-55
2022/06/19 09:52:36;;;;;;;3.80;1.10;;;25.90;53.80;;;26.55;38.28;95364.22;5084993;28;20445;-53
2022/06/19 09:55:09;;;;;;;3.20;1.50;;;26.00;53.40;;;26.67;38.30;95355.41;5080915;28;20466;-56
2022/06/19 09:57:39;;;;;;;3.43;1.00;;;26.10;53.40;;;26.82;38.26;95363.91;5086367;28;20812;-55
2022/06/19 10:00:09;;;;;;;4.70;1.47;;;26.30;52.60;;;26.93;37.91;95362.31;5080193;28;21072;-53
2022/06/19 10:02:44;;;;;;;4.47;1.97;;;26.30;52.70;;;26.99;37.49;95361.38;5081627;28;20480;-54
2022/06/19 10:05:17;;;;;;;2.03;1.27;;;26.50;52.30;;;27.04;37.61;95358.00;5084728;28;20484;-55
2022/06/19 10:07:49;;;;;;;2.67;1.40;;;26.50;51.90;;;27.10;37.29;95343.56;5074695;28;20875;-55
2022/06/19 10:10:19;;;;;;;1.50;1.40;;;26.60;51.70;;;27.18;37.73;95346.72;5080836;28;20857;-54
2022/06/19 10:12:49;;;;;;;4.60;1.33;;;26.60;51.70;;;27.27;37.05;95346.41;5083534;28;20448;-54
2022/06/19 10:15:21;;;;;;;1.30;1.20;;;26.70;51.40;;;27.36;37.35;95345.03;5084420;28;20473;-55
2022/06/19 10:17:54;;;;;;;1.63;1.47;;;26.80;51.40;;;27.37;36.30;95346.66;5074769;28;20443;-54
2022/06/19 10:20:24;;;;;;;6.10;1.27;;;26.80;49.30;;;27.31;36.60;95348.44;5088553;28;20475;-56
2022/06/19 10:22:59;;;;;;;2.60;1.50;;;26.80;50.20;;;27.24;36.61;95344.16;5086746;28;20448;-54
2022/06/19 10:25:46;;;;;;;1.60;1.13;;;26.70;50.60;;;27.22;36.02;95338.16;5082234;28;20469;-55
2022/06/19 10:28:27;;;;;;;1.20;1.10;;;26.70;50.20;;;27.24;35.74;95347.69;5081020;28;20484;-53
2022/06/19 10:31:02;;;;;;;6.03;1.30;;;26.70;50.40;;;27.25;35.44;95349.34;5086718;28;20469;-53
2022/06/19 10:33:41;;;;;;;5.73;1.43;;;26.70;49.90;;;27.22;35.82;95343.56;5080598;28;20455;-53
2022/06/19 10:36:14;;;;;;;4.00;1.23;;;26.70;49.60;;;27.15;35.72;95341.78;5085667;28;20472;-54